createdAt,value
2023-04-12T00:01:02.720Z,64.56
2023-04-12T00:03:30.444Z,65.38
2023-04-12T00:05:57.349Z,65.52
2023-04-12T00:08:33.371Z,65.56
2023-04-12T00:11:01.144Z,66.08
2023-04-12T00:13:28.231Z,65.89
2023-04-12T00:15:55.444Z,66.61
2023-04-12T00:18:25.343Z,66.18
2023-04-12T00:20:53.030Z,66.40
2023-04-12T00:23:20.681Z,66.86
2023-04-12T00:25:48.021Z,66.69
2023-04-12T00:28:15.968Z,67.35
2023-04-12T00:30:43.816Z,67.35
2023-04-12T00:33:10.766Z,66.76
2023-04-12T00:35:37.616Z,67.45
2023-04-12T00:38:06.265Z,67.70
2023-04-12T00:40:33.214Z,68.35
2023-04-12T00:43:00.735Z,68.18
2023-04-12T00:45:28.664Z,68.24
2023-04-12T00:47:56.399Z,68.85
2023-04-12T00:50:23.271Z,68.39
2023-04-12T00:52:52.079Z,68.70
2023-04-12T00:55:19.343Z,68.60
2023-04-12T00:57:46.784Z,68.98
2023-04-12T01:00:13.913Z,68.81
2023-04-12T01:02:48.234Z,68.62
2023-04-12T01:05:22.079Z,69.15
2023-04-12T01:08:01.077Z,69.08
2023-04-12T01:10:54.173Z,68.83
2023-04-12T01:13:21.068Z,69.08
2023-04-12T01:15:56.105Z,69.02
2023-04-12T01:18:29.092Z,69.35
2023-04-12T01:21:07.035Z,69.60
2023-04-12T01:24:13.613Z,69.62
2023-04-12T01:26:49.418Z,69.28
2023-04-12T01:29:19.670Z,69.56
2023-04-12T01:31:58.203Z,69.85
2023-04-12T01:34:28.228Z,69.93
2023-04-12T01:36:55.589Z,70.59
2023-04-12T01:39:22.662Z,70.33
2023-04-12T01:41:49.802Z,70.59
2023-04-12T01:44:17.655Z,70.26
2023-04-12T01:46:47.354Z,70.21
2023-04-12T01:49:19.069Z,70.72
2023-04-12T01:52:09.574Z,71.31
2023-04-12T01:54:41.057Z,71.17
2023-04-12T01:57:08.775Z,71.40
2023-04-12T01:59:40.464Z,71.39
2023-04-12T02:02:09.014Z,70.32
2023-04-12T02:04:37.650Z,70.62
2023-04-12T02:07:04.680Z,70.38
2023-04-12T02:09:37.966Z,70.74
2023-04-12T02:12:06.357Z,70.35
2023-04-12T02:14:33.388Z,70.69
2023-04-12T02:17:02.359Z,70.27
2023-04-12T02:19:32.335Z,70.48
2023-04-12T02:21:59.121Z,71.54
2023-04-12T02:24:27.395Z,71.21
2023-04-12T02:26:55.114Z,71.16
2023-04-12T02:29:24.973Z,71.09
2023-04-12T02:31:52.453Z,70.94
2023-04-12T02:34:21.480Z,70.86
2023-04-12T02:36:54.756Z,70.22
2023-04-12T02:39:22.508Z,70.60
2023-04-12T02:41:51.427Z,70.34
2023-04-12T02:44:18.275Z,70.39
2023-04-12T02:47:03.516Z,70.46
2023-04-12T02:49:34.427Z,70.44
2023-04-12T02:52:02.447Z,71.34
2023-04-12T02:54:36.532Z,71.36
2023-04-12T02:57:04.640Z,70.93
2023-04-12T02:59:42.263Z,71.07
2023-04-12T03:02:20.221Z,71.51
2023-04-12T03:04:50.728Z,71.56
2023-04-12T03:07:21.955Z,71.44
2023-04-12T03:09:51.688Z,71.61
2023-04-12T03:12:20.713Z,72.22
2023-04-12T03:15:05.759Z,72.65
2023-04-12T03:17:32.634Z,72.18
2023-04-12T03:20:10.489Z,71.92
2023-04-12T03:22:40.937Z,72.28
2023-04-12T03:25:10.231Z,71.99
2023-04-12T03:27:41.325Z,72.30
2023-04-12T03:30:08.927Z,72.18
2023-04-12T03:32:39.140Z,72.34
2023-04-12T03:35:09.448Z,72.12
2023-04-12T03:37:41.478Z,72.76
2023-04-12T03:40:10.736Z,72.10
2023-04-12T03:42:39.108Z,72.79
2023-04-12T03:45:13.871Z,73.08
2023-04-12T03:47:44.745Z,73.85
2023-04-12T03:50:12.688Z,73.26
2023-04-12T03:52:44.968Z,73.26
2023-04-12T03:55:13.728Z,73.87
2023-04-12T03:57:42.004Z,74.22
2023-04-12T04:00:10.005Z,73.49
2023-04-12T04:03:03.586Z,73.81
2023-04-12T04:05:34.065Z,73.50
2023-04-12T04:08:02.471Z,73.76
2023-04-12T04:10:35.937Z,74.51
2023-04-12T04:13:02.684Z,75.27
2023-04-12T04:15:29.519Z,74.76
2023-04-12T04:17:56.440Z,74.58
2023-04-12T04:20:24.509Z,73.92
2023-04-12T04:22:54.406Z,74.94
2023-04-12T04:25:29.848Z,74.86
2023-04-12T04:27:59.918Z,74.97
2023-04-12T04:30:31.673Z,74.63
2023-04-12T04:32:58.868Z,75.00
2023-04-12T04:35:27.156Z,74.74
2023-04-12T04:38:05.138Z,74.61
2023-04-12T04:40:32.972Z,74.82
2023-04-12T04:43:00.647Z,74.91
2023-04-12T04:45:32.407Z,75.43
2023-04-12T04:48:01.300Z,75.92
2023-04-12T04:50:28.463Z,76.00
2023-04-12T04:52:55.886Z,75.88
2023-04-12T04:55:24.726Z,76.01
2023-04-12T04:57:51.893Z,75.79
2023-04-12T05:00:19.635Z,76.52
2023-04-12T05:02:53.318Z,76.22
2023-04-12T05:05:30.390Z,76.67
2023-04-12T05:08:04.281Z,76.72
2023-04-12T05:10:33.458Z,76.22
2023-04-12T05:13:02.474Z,76.70
2023-04-12T05:15:31.440Z,76.82
2023-04-12T05:17:59.397Z,76.57
2023-04-12T05:20:26.228Z,76.26
2023-04-12T05:22:53.034Z,76.59
2023-04-12T05:25:20.942Z,76.94
2023-04-12T05:27:59.510Z,76.69
2023-04-12T05:30:26.337Z,76.31
2023-04-12T05:32:53.532Z,76.39
2023-04-12T05:35:21.309Z,76.15
2023-04-12T05:37:50.159Z,76.00
2023-04-12T05:40:17.046Z,76.49
2023-04-12T05:42:44.108Z,76.75
2023-04-12T05:45:12.025Z,76.56
2023-04-12T05:47:39.054Z,76.82
2023-04-12T05:50:07.083Z,76.97
2023-04-12T05:52:36.712Z,77.50
2023-04-12T05:55:05.730Z,77.42
2023-04-12T05:57:33.794Z,76.91
2023-04-12T06:00:00.676Z,77.64
2023-04-12T06:02:28.272Z,77.63
2023-04-12T06:04:55.815Z,77.16
2023-04-12T06:07:22.923Z,76.70
2023-04-12T06:09:49.877Z,76.38
2023-04-12T06:12:17.478Z,75.45
2023-04-12T06:14:45.272Z,75.75
2023-04-12T06:17:12.240Z,76.26
2023-04-12T06:19:40.037Z,77.11
2023-04-12T06:22:06.764Z,76.62
2023-04-12T06:24:33.877Z,76.80
2023-04-12T06:27:00.745Z,76.77
2023-04-12T06:29:27.495Z,76.08
2023-04-12T06:31:54.306Z,76.00
2023-04-12T06:34:21.308Z,76.32
2023-04-12T06:36:48.849Z,76.49
2023-04-12T06:39:16.384Z,76.25
2023-04-12T06:41:47.578Z,76.04
2023-04-12T06:44:19.316Z,76.64
2023-04-12T06:46:46.576Z,76.89
2023-04-12T06:49:13.461Z,76.72
2023-04-12T06:51:40.161Z,77.28
2023-04-12T06:54:06.873Z,77.01
2023-04-12T06:56:34.578Z,76.45
2023-04-12T06:59:01.285Z,76.39
2023-04-12T07:01:28.161Z,76.00
2023-04-12T07:03:55.123Z,75.04
2023-04-12T07:06:25.483Z,75.39
2023-04-12T07:08:53.140Z,78.54
2023-04-12T07:11:22.742Z,78.12
2023-04-12T07:13:51.065Z,78.60
2023-04-12T07:16:18.429Z,77.86
2023-04-12T07:18:45.403Z,78.97
2023-04-12T07:21:14.498Z,77.83
2023-04-12T07:23:41.415Z,78.04
2023-04-12T07:26:08.333Z,78.25
2023-04-12T07:28:36.302Z,79.46
2023-04-12T07:31:07.127Z,79.56
2023-04-12T07:33:36.114Z,80.30
2023-04-12T07:36:06.429Z,79.23
2023-04-12T07:38:33.210Z,79.18
2023-04-12T07:40:59.968Z,79.46
2023-04-12T07:43:26.806Z,79.29
2023-04-12T07:45:56.718Z,79.06
2023-04-12T07:48:23.683Z,79.49
2023-04-12T07:50:50.762Z,79.15
2023-04-12T07:53:22.201Z,78.58
2023-04-12T07:55:50.042Z,78.67
2023-04-12T07:58:17.853Z,79.01
2023-04-12T08:00:45.520Z,78.97
2023-04-12T08:03:13.706Z,78.97
2023-04-12T08:05:40.987Z,79.17
2023-04-12T08:08:10.025Z,78.58
2023-04-12T08:10:39.973Z,78.98
2023-04-12T08:13:07.649Z,78.55
2023-04-12T08:15:34.661Z,77.72
2023-04-12T08:18:02.466Z,78.00
2023-04-12T08:20:29.480Z,77.63
2023-04-12T08:22:56.424Z,77.99
2023-04-12T08:25:23.278Z,78.92
2023-04-12T08:27:51.299Z,78.90
2023-04-12T08:30:19.440Z,78.25
2023-04-12T08:32:46.316Z,78.82
2023-04-12T08:35:14.759Z,79.12
2023-04-12T08:37:41.875Z,78.53
2023-04-12T08:40:09.411Z,79.03
2023-04-12T08:42:37.606Z,78.64
2023-04-12T08:45:09.390Z,78.86
2023-04-12T08:47:39.246Z,79.42
2023-04-12T08:50:09.886Z,79.14
2023-04-12T08:52:37.973Z,80.72
2023-04-12T08:55:08.970Z,79.75
2023-04-12T08:57:36.802Z,80.25
2023-04-12T09:00:07.272Z,79.81
2023-04-12T09:02:39.074Z,78.98
2023-04-12T09:05:07.396Z,78.16
2023-04-12T09:07:34.471Z,78.74
2023-04-12T09:10:01.641Z,80.04
2023-04-12T09:12:28.633Z,79.18
2023-04-12T09:15:13.414Z,78.39
2023-04-12T09:17:42.080Z,79.03
2023-04-12T09:20:18.180Z,78.23
2023-04-12T09:22:46.779Z,78.07
2023-04-12T09:25:15.686Z,79.07
2023-04-12T09:27:50.008Z,79.55
2023-04-12T09:30:20.291Z,79.75
2023-04-12T09:32:49.598Z,79.33
2023-04-12T09:35:16.538Z,79.59
2023-04-12T09:37:43.315Z,79.41
2023-04-12T09:40:10.819Z,79.72
2023-04-12T09:42:52.239Z,79.73
2023-04-12T09:45:22.062Z,79.60
2023-04-12T09:47:49.499Z,79.51
2023-04-12T09:50:34.845Z,78.73
2023-04-12T09:53:03.483Z,78.81
2023-04-12T09:55:32.295Z,78.91
2023-04-12T09:58:04.122Z,78.97
2023-04-12T10:00:31.930Z,78.26
2023-04-12T10:02:58.965Z,78.72
2023-04-12T10:05:27.190Z,77.66
2023-04-12T10:07:56.949Z,77.66
2023-04-12T10:10:24.686Z,77.63
2023-04-12T10:12:51.644Z,77.27
2023-04-12T10:15:21.095Z,76.29
2023-04-12T10:17:54.781Z,76.13
2023-04-12T10:20:24.872Z,75.29
2023-04-12T10:22:54.169Z,75.87
2023-04-12T10:25:25.712Z,77.59
2023-04-12T10:27:53.660Z,77.59
2023-04-12T10:30:28.350Z,76.29
2023-04-12T10:33:04.170Z,78.02
2023-04-12T10:35:48.908Z,78.22
2023-04-12T10:38:16.887Z,78.57
2023-04-12T10:41:29.067Z,78.55
2023-04-12T10:44:23.768Z,81.01
2023-04-12T10:46:50.873Z,80.24
2023-04-12T10:49:18.458Z,79.88
2023-04-12T10:52:09.204Z,80.06
2023-04-12T10:54:36.899Z,79.74
2023-04-12T10:57:05.550Z,78.94
2023-04-12T10:59:54.269Z,77.11
2023-04-12T11:02:21.544Z,77.31
2023-04-12T11:05:11.176Z,75.56
2023-04-12T11:08:12.416Z,77.13
2023-04-12T11:10:39.415Z,79.47
2023-04-12T11:13:09.305Z,77.79
2023-04-12T11:15:39.799Z,80.93
2023-04-12T11:18:11.762Z,77.79
2023-04-12T11:20:40.407Z,78.58
2023-04-12T11:23:09.943Z,80.64
2023-04-12T11:25:38.485Z,81.14
2023-04-12T11:28:13.827Z,80.09
2023-04-12T11:30:53.065Z,79.03
2023-04-12T11:33:32.960Z,77.68
2023-04-12T11:36:02.860Z,78.46
2023-04-12T11:38:29.602Z,78.28
2023-04-12T11:40:56.638Z,80.19
2023-04-12T11:43:23.626Z,80.87
2023-04-12T11:45:56.678Z,82.15
2023-04-12T11:48:23.509Z,82.81
2023-04-12T11:50:59.920Z,85.77
2023-04-12T11:53:34.947Z,83.01
2023-04-12T11:56:02.042Z,82.65
2023-04-12T11:58:28.988Z,80.43
2023-04-12T12:00:58.478Z,79.14
2023-04-12T12:03:25.566Z,78.50
2023-04-12T12:05:52.612Z,78.69
2023-04-12T12:08:19.902Z,78.04
2023-04-12T12:13:18.945Z,78.94
2023-04-12T12:15:46.256Z,75.07
2023-04-12T12:18:13.029Z,74.78
2023-04-12T12:20:48.809Z,71.65
2023-04-12T12:23:33.772Z,71.83
2023-04-12T12:26:17.850Z,72.97
2023-04-12T12:28:53.490Z,71.36
2023-04-12T12:31:31.205Z,72.38
2023-04-12T12:33:59.797Z,70.51
2023-04-12T12:36:38.122Z,73.08
2023-04-12T12:39:07.775Z,73.97
2023-04-12T12:41:34.947Z,75.48
2023-04-12T12:44:01.769Z,75.57
2023-04-12T12:46:40.655Z,73.98
2023-04-12T12:49:15.371Z,74.81
2023-04-12T12:51:42.971Z,73.51
2023-04-12T12:54:09.878Z,72.47
2023-04-12T12:56:37.006Z,73.57
2023-04-12T12:59:04.139Z,75.12
2023-04-12T13:01:30.991Z,75.09
2023-04-12T13:03:58.998Z,74.54
2023-04-12T13:06:27.091Z,74.16
2023-04-12T13:08:55.257Z,73.88
2023-04-12T13:11:22.145Z,74.85
2023-04-12T13:13:49.169Z,76.78
2023-04-12T13:16:16.159Z,76.47
2023-04-12T13:18:43.285Z,76.04
2023-04-12T13:21:10.065Z,75.91
2023-04-12T13:23:36.928Z,76.20
2023-04-12T13:26:04.080Z,75.23
2023-04-12T13:28:30.840Z,75.59
2023-04-12T13:30:57.558Z,77.68
2023-04-12T13:33:24.426Z,77.99
2023-04-12T13:35:51.381Z,77.24
2023-04-12T13:38:18.130Z,78.38
2023-04-12T13:40:44.830Z,77.61
2023-04-12T13:43:11.681Z,80.00
2023-04-12T13:45:38.497Z,78.63
2023-04-12T13:48:05.402Z,77.92
2023-04-12T13:50:32.350Z,76.70
2023-04-12T13:52:59.140Z,75.81
2023-04-12T13:55:26.241Z,73.50
2023-04-12T13:57:52.956Z,71.01
2023-04-12T14:00:20.382Z,72.19
2023-04-12T14:02:47.263Z,70.31
2023-04-12T14:05:14.101Z,69.77
2023-04-12T14:07:40.909Z,68.82
2023-04-12T14:10:08.214Z,68.31
2023-04-12T14:12:34.986Z,68.40
2023-04-12T14:15:01.731Z,66.25
2023-04-12T14:17:32.450Z,68.46
2023-04-12T14:19:59.676Z,69.70
2023-04-12T14:22:29.111Z,66.21
2023-04-12T14:24:55.862Z,66.36
2023-04-12T14:27:22.703Z,65.07
2023-04-12T14:29:49.610Z,63.85
2023-04-12T14:32:17.548Z,63.44
2023-04-12T14:34:44.850Z,63.40
2023-04-12T14:37:11.755Z,61.73
2023-04-12T14:39:38.600Z,61.01
2023-04-12T14:42:06.043Z,62.85
2023-04-12T14:44:32.816Z,62.69
2023-04-12T14:46:59.644Z,62.12
2023-04-12T14:49:26.367Z,63.61
2023-04-12T14:51:53.120Z,63.13
2023-04-12T14:54:20.691Z,63.00
2023-04-12T14:56:53.494Z,62.43
2023-04-12T14:59:21.663Z,61.79
2023-04-12T15:01:48.571Z,61.52
2023-04-12T15:04:15.706Z,60.08
2023-04-12T15:06:42.618Z,58.43
2023-04-12T15:09:10.010Z,59.26
2023-04-12T15:11:38.125Z,58.58
2023-04-12T15:14:06.025Z,57.93
2023-04-12T15:16:34.981Z,57.54
2023-04-12T15:19:07.012Z,57.18
2023-04-12T15:21:38.016Z,56.84
2023-04-12T15:24:04.925Z,55.46
2023-04-12T15:26:31.730Z,56.62
2023-04-12T15:28:58.440Z,53.70
2023-04-12T15:31:25.800Z,55.77
2023-04-12T15:33:52.532Z,54.90
2023-04-12T15:36:20.274Z,54.23
2023-04-12T15:38:47.134Z,53.29
2023-04-12T15:41:13.891Z,54.61
2023-04-12T15:43:49.172Z,53.88
2023-04-12T15:46:16.342Z,52.99
2023-04-12T15:48:43.246Z,52.71
2023-04-12T15:51:09.954Z,52.03
2023-04-12T15:53:36.933Z,48.49
2023-04-12T15:56:04.443Z,49.95
2023-04-12T15:58:31.421Z,49.39
2023-04-12T16:00:58.169Z,48.23
2023-04-12T16:03:26.064Z,48.69
2023-04-12T16:05:54.596Z,48.45
2023-04-12T16:08:22.212Z,48.86
2023-04-12T16:10:50.272Z,48.88
2023-04-12T16:13:17.193Z,47.54
2023-04-12T16:15:44.140Z,46.86
2023-04-12T16:18:11.192Z,46.34
2023-04-12T16:20:38.182Z,46.14
2023-04-12T16:23:05.221Z,48.05
2023-04-12T16:25:33.307Z,46.66
2023-04-12T16:28:03.018Z,47.45
2023-04-12T16:30:32.254Z,47.76
2023-04-12T16:32:59.813Z,47.85
2023-04-12T16:35:26.711Z,47.39
2023-04-12T16:37:54.484Z,47.75
2023-04-12T16:40:22.153Z,47.61
2023-04-12T16:42:48.934Z,47.96
2023-04-12T16:45:15.819Z,48.01
2023-04-12T16:47:42.601Z,48.04
2023-04-12T16:50:09.958Z,47.72
2023-04-12T16:52:37.612Z,48.13
2023-04-12T16:55:04.807Z,47.34
2023-04-12T16:57:32.747Z,48.19
2023-04-12T16:59:59.602Z,47.93
2023-04-12T17:02:26.856Z,47.85
2023-04-12T17:04:53.622Z,47.89
2023-04-12T17:07:20.303Z,48.89
2023-04-12T17:09:47.098Z,50.86
2023-04-12T17:12:13.851Z,52.29
2023-04-12T17:14:40.706Z,53.10
2023-04-12T17:17:07.438Z,53.87
2023-04-12T17:19:34.217Z,54.15
2023-04-12T17:22:01.202Z,53.57
2023-04-12T17:24:29.065Z,53.67
2023-04-12T17:26:56.373Z,51.93
2023-04-12T17:29:23.295Z,52.99
2023-04-12T17:31:54.147Z,54.62
2023-04-12T17:34:22.029Z,55.62
2023-04-12T17:36:49.052Z,58.18
2023-04-12T17:39:16.309Z,57.49
2023-04-12T17:41:43.207Z,59.17
2023-04-12T17:44:10.174Z,59.02
2023-04-12T17:46:37.367Z,59.75
2023-04-12T17:49:05.878Z,61.84
2023-04-12T17:51:33.408Z,62.50
2023-04-12T17:54:03.584Z,61.66
2023-04-12T17:56:30.483Z,62.42
2023-04-12T17:58:57.765Z,62.25
2023-04-12T18:01:24.823Z,61.84
2023-04-12T18:03:51.971Z,61.90
2023-04-12T18:06:20.394Z,62.43
2023-04-12T18:08:47.296Z,62.97
2023-04-12T18:11:14.567Z,61.89
2023-04-12T18:13:41.894Z,61.84
2023-04-12T18:16:08.890Z,61.91
2023-04-12T18:18:36.080Z,62.62
2023-04-12T18:21:04.664Z,62.88
2023-04-12T18:23:31.896Z,63.81
2023-04-12T18:25:58.653Z,64.31
2023-04-12T18:28:25.374Z,63.96
2023-04-12T18:30:52.183Z,63.67
2023-04-12T18:33:18.882Z,63.87
2023-04-12T18:35:45.706Z,63.85
2023-04-12T18:38:12.458Z,64.28
2023-04-12T18:40:39.211Z,64.46
2023-04-12T18:43:06.235Z,64.56
2023-04-12T18:45:33.045Z,64.80
2023-04-12T18:48:00.466Z,64.96
2023-04-12T18:50:27.537Z,65.01
2023-04-12T18:52:54.366Z,64.34
2023-04-12T18:55:21.181Z,63.88
2023-04-12T18:57:49.250Z,63.53
2023-04-12T19:00:16.685Z,62.95
2023-04-12T19:02:43.658Z,63.09
2023-04-12T19:05:11.633Z,62.73
2023-04-12T19:07:38.418Z,62.59
2023-04-12T19:10:05.560Z,62.20
2023-04-12T19:12:33.103Z,62.14
2023-04-12T19:14:59.869Z,62.38
2023-04-12T19:17:29.607Z,62.54
2023-04-12T19:19:57.057Z,62.53
2023-04-12T19:22:27.772Z,62.31
2023-04-12T19:24:54.890Z,63.29
2023-04-12T19:27:22.951Z,62.87
2023-04-12T19:29:51.437Z,62.99
2023-04-12T19:32:18.880Z,62.92
2023-04-12T19:34:47.152Z,62.38
2023-04-12T19:37:14.140Z,62.32
2023-04-12T19:39:41.190Z,61.69
2023-04-12T19:42:08.155Z,61.39
2023-04-12T19:44:34.888Z,60.92
2023-04-12T19:47:01.829Z,61.17
2023-04-12T19:49:28.784Z,61.18
2023-04-12T19:51:56.200Z,60.28
2023-04-12T19:54:23.965Z,60.37
2023-04-12T19:56:52.515Z,60.57
2023-04-12T19:59:24.871Z,60.56
2023-04-12T20:01:55.883Z,60.08
2023-04-12T20:04:24.066Z,59.78
2023-04-12T20:06:54.177Z,60.04
2023-04-12T20:09:24.130Z,59.56
2023-04-12T20:11:50.987Z,59.58
2023-04-12T20:14:18.045Z,60.68
2023-04-12T20:16:45.537Z,59.82
2023-04-12T20:19:12.369Z,60.30
2023-04-12T20:21:40.266Z,60.45
2023-04-12T20:24:09.985Z,60.50
2023-04-12T20:26:37.351Z,60.71
2023-04-12T20:29:04.809Z,61.15
2023-04-12T20:31:33.450Z,60.57
2023-04-12T20:34:00.345Z,60.80
2023-04-12T20:36:27.153Z,61.08
2023-04-12T20:38:53.923Z,60.33
2023-04-12T20:41:20.786Z,59.27
2023-04-12T20:43:48.189Z,59.11
2023-04-12T20:46:18.954Z,58.20
2023-04-12T20:48:50.783Z,57.70
2023-04-12T20:51:18.545Z,57.71
2023-04-12T20:53:47.257Z,56.87
2023-04-12T20:56:14.664Z,56.56
2023-04-12T20:58:41.862Z,56.46
2023-04-12T21:01:14.412Z,56.52
2023-04-12T21:03:42.306Z,55.58
2023-04-12T21:06:10.608Z,56.06
2023-04-12T21:08:38.053Z,55.40
2023-04-12T21:11:04.980Z,55.17
2023-04-12T21:13:31.734Z,54.93
2023-04-12T21:15:58.986Z,54.93
2023-04-12T21:18:25.711Z,55.20
2023-04-12T21:20:52.744Z,55.47
2023-04-12T21:23:19.601Z,55.30
2023-04-12T21:25:51.243Z,55.24
2023-04-12T21:28:18.153Z,56.04
2023-04-12T21:30:46.117Z,56.10
2023-04-12T21:33:13.096Z,55.08
2023-04-12T21:35:40.262Z,55.89
2023-04-12T21:38:08.388Z,56.67
2023-04-12T21:40:36.174Z,56.33
2023-04-12T21:43:02.866Z,56.71
2023-04-12T21:45:29.826Z,57.74
2023-04-12T21:47:56.800Z,56.94
2023-04-12T21:50:23.503Z,57.03
2023-04-12T21:52:50.218Z,57.19
2023-04-12T21:55:18.568Z,58.10
2023-04-12T21:57:45.466Z,58.20
2023-04-12T22:00:12.742Z,59.45
2023-04-12T22:02:40.528Z,60.15
2023-04-12T22:05:07.750Z,59.88
2023-04-12T22:07:34.563Z,60.01
2023-04-12T22:10:02.420Z,59.79
2023-04-12T22:12:29.111Z,60.23
2023-04-12T22:14:57.605Z,60.24
2023-04-12T22:17:24.620Z,60.70
2023-04-12T22:19:53.157Z,60.01
2023-04-12T22:22:20.835Z,61.25
2023-04-12T22:24:47.514Z,60.14
2023-04-12T22:27:16.231Z,60.58
2023-04-12T22:29:42.958Z,60.44
2023-04-12T22:32:09.691Z,61.10
2023-04-12T22:34:39.377Z,61.07
2023-04-12T22:37:07.066Z,60.83
2023-04-12T22:39:33.923Z,60.22
2023-04-12T22:42:00.674Z,60.87
2023-04-12T22:44:29.060Z,61.24
2023-04-12T22:46:56.644Z,59.99
2023-04-12T22:49:27.917Z,60.81
2023-04-12T22:51:55.772Z,60.09
2023-04-12T22:54:26.072Z,60.32
2023-04-12T22:56:52.834Z,60.40
2023-04-12T22:59:22.316Z,60.40
2023-04-12T23:01:49.300Z,61.02
2023-04-12T23:04:16.300Z,62.65
2023-04-12T23:06:43.896Z,62.40
2023-04-12T23:09:12.394Z,61.93
2023-04-12T23:11:40.767Z,61.44
2023-04-12T23:14:08.932Z,61.55
2023-04-12T23:16:35.707Z,62.21
2023-04-12T23:19:05.162Z,61.78
2023-04-12T23:21:36.046Z,60.88
2023-04-12T23:24:03.119Z,61.93
2023-04-12T23:26:29.820Z,62.05
2023-04-12T23:28:57.226Z,61.53
2023-04-12T23:31:24.070Z,61.02
2023-04-12T23:33:50.837Z,60.33
2023-04-12T23:36:17.500Z,59.41
2023-04-12T23:38:44.422Z,59.63
2023-04-12T23:41:12.460Z,59.28
2023-04-12T23:43:39.412Z,59.31
2023-04-12T23:46:06.767Z,59.01
2023-04-12T23:48:33.571Z,57.88
2023-04-12T23:51:00.463Z,57.61
2023-04-12T23:53:27.237Z,57.80
2023-04-12T23:55:54.173Z,58.02
2023-04-12T23:58:21.531Z,59.91
